createdAt,value
2022-12-07T00:01:24.387Z,4.90
2022-12-07T00:03:53.641Z,4.90
2022-12-07T00:06:21.251Z,4.90
2022-12-07T00:08:48.361Z,5.00
2022-12-07T00:11:20.859Z,4.90
2022-12-07T00:13:51.686Z,5.00
2022-12-07T00:16:21.500Z,5.00
2022-12-07T00:18:48.697Z,5.00
2022-12-07T00:21:21.430Z,5.00
2022-12-07T00:23:49.886Z,5.00
2022-12-07T00:26:20.876Z,5.00
2022-12-07T00:28:57.030Z,5.00
2022-12-07T00:31:26.544Z,5.00
2022-12-07T00:33:53.751Z,5.00
2022-12-07T00:36:26.948Z,5.00
2022-12-07T00:38:55.791Z,5.00
2022-12-07T00:41:24.754Z,5.00
2022-12-07T00:43:52.209Z,5.00
2022-12-07T00:46:20.169Z,5.00
2022-12-07T00:48:48.111Z,5.00
2022-12-07T00:51:16.648Z,5.00
2022-12-07T00:53:43.568Z,5.10
2022-12-07T00:56:14.063Z,5.00
2022-12-07T00:58:41.303Z,5.00
2022-12-07T01:01:09.836Z,5.00
2022-12-07T01:03:37.624Z,5.00
2022-12-07T01:06:05.316Z,5.10
2022-12-07T01:08:32.530Z,5.00
2022-12-07T01:11:08.229Z,5.00
2022-12-07T01:13:35.861Z,5.10
2022-12-07T01:16:05.078Z,5.10
2022-12-07T01:18:33.788Z,5.10
2022-12-07T01:21:03.123Z,5.10
2022-12-07T01:23:30.680Z,5.10
2022-12-07T01:25:58.650Z,5.10
2022-12-07T01:28:26.116Z,5.10
2022-12-07T01:31:16.311Z,5.10
2022-12-07T01:33:45.396Z,5.10
2022-12-07T01:36:38.207Z,5.10
2022-12-07T01:39:07.558Z,5.10
2022-12-07T01:41:37.339Z,5.10
2022-12-07T01:44:18.877Z,5.10
2022-12-07T01:46:57.229Z,5.10
2022-12-07T01:49:30.367Z,5.10
2022-12-07T01:52:24.756Z,5.20
2022-12-07T01:54:56.341Z,5.20
2022-12-07T01:57:23.708Z,5.20
2022-12-07T01:59:52.979Z,5.20
2022-12-07T02:02:26.222Z,5.20
2022-12-07T02:04:54.467Z,5.20
2022-12-07T02:07:23.544Z,5.10
2022-12-07T02:09:50.308Z,5.10
2022-12-07T02:12:17.303Z,5.10
2022-12-07T02:14:44.084Z,5.20
2022-12-07T02:17:10.892Z,5.20
2022-12-07T02:19:58.651Z,5.20
2022-12-07T02:22:59.922Z,5.20
2022-12-07T02:25:45.634Z,5.20
2022-12-07T02:28:21.293Z,5.20
2022-12-07T02:30:51.068Z,5.10
2022-12-07T02:33:25.732Z,5.20
2022-12-07T02:35:57.865Z,5.10
2022-12-07T02:38:35.969Z,5.20
2022-12-07T02:41:13.803Z,5.20
2022-12-07T02:43:48.474Z,5.20
2022-12-07T02:46:24.828Z,5.20
2022-12-07T02:48:52.633Z,5.20
2022-12-07T02:51:19.974Z,5.20
2022-12-07T02:53:46.927Z,5.20
2022-12-07T02:56:32.603Z,5.20
2022-12-07T02:58:59.305Z,5.20
2022-12-07T03:01:35.094Z,5.20
2022-12-07T03:04:13.287Z,5.10
2022-12-07T03:06:49.395Z,5.10
2022-12-07T03:09:28.129Z,5.20
2022-12-07T03:12:15.330Z,5.10
2022-12-07T03:14:53.723Z,5.10
2022-12-07T03:17:28.113Z,5.10
2022-12-07T03:19:59.335Z,5.10
2022-12-07T03:22:32.291Z,5.10
2022-12-07T03:25:01.622Z,5.00
2022-12-07T03:27:39.209Z,5.00
2022-12-07T03:30:10.612Z,5.00
2022-12-07T03:33:15.540Z,5.00
2022-12-07T03:35:48.615Z,5.00
2022-12-07T03:38:24.191Z,5.00
2022-12-07T03:41:00.762Z,5.00
2022-12-07T03:43:30.286Z,5.00
2022-12-07T03:46:16.073Z,4.90
2022-12-07T03:49:24.207Z,4.90
2022-12-07T03:52:18.745Z,4.90
2022-12-07T03:54:52.234Z,4.90
2022-12-07T03:57:19.880Z,4.90
2022-12-07T03:59:47.398Z,4.90
2022-12-07T04:02:14.619Z,4.80
2022-12-07T04:04:42.389Z,4.80
2022-12-07T04:07:09.248Z,4.80
2022-12-07T04:09:36.016Z,4.80
2022-12-07T04:12:02.836Z,4.80
2022-12-07T04:14:29.592Z,4.80
2022-12-07T04:16:57.791Z,4.70
2022-12-07T04:19:34.973Z,4.70
2022-12-07T04:22:03.563Z,4.70
2022-12-07T04:24:30.516Z,4.70
2022-12-07T04:26:57.267Z,4.60
2022-12-07T04:29:24.038Z,4.70
2022-12-07T04:31:51.394Z,4.70
2022-12-07T04:34:19.778Z,4.70
2022-12-07T04:36:47.852Z,4.70
2022-12-07T04:39:25.366Z,4.70
2022-12-07T04:41:52.230Z,4.60
2022-12-07T04:44:19.933Z,4.60
2022-12-07T04:46:47.351Z,4.60
2022-12-07T04:49:14.543Z,4.60
2022-12-07T04:51:42.482Z,4.60
2022-12-07T04:54:09.579Z,4.70
2022-12-07T04:56:36.721Z,4.60
2022-12-07T04:59:04.347Z,4.60
2022-12-07T05:01:31.295Z,4.60
2022-12-07T05:03:58.095Z,4.60
2022-12-07T05:06:25.314Z,4.60
2022-12-07T05:08:52.176Z,4.60
2022-12-07T05:11:37.760Z,4.60
2022-12-07T05:14:07.113Z,4.60
2022-12-07T05:16:33.941Z,4.60
2022-12-07T05:19:00.824Z,4.60
2022-12-07T05:21:27.591Z,4.60
2022-12-07T05:23:54.334Z,4.60
2022-12-07T05:26:21.114Z,4.50
2022-12-07T05:28:52.646Z,4.50
2022-12-07T05:31:19.880Z,4.50
2022-12-07T05:33:46.920Z,4.50
2022-12-07T05:36:13.816Z,4.50
2022-12-07T05:38:40.677Z,4.50
2022-12-07T05:41:28.924Z,4.50
2022-12-07T05:43:56.838Z,4.50
2022-12-07T05:46:23.747Z,4.40
2022-12-07T05:48:50.607Z,4.40
2022-12-07T05:51:17.478Z,4.40
2022-12-07T05:53:44.279Z,4.40
2022-12-07T05:56:11.025Z,4.40
2022-12-07T05:58:56.519Z,4.40
2022-12-07T06:01:23.299Z,4.40
2022-12-07T06:03:50.038Z,4.40
2022-12-07T06:06:16.844Z,4.40
2022-12-07T06:08:43.604Z,4.40
2022-12-07T06:11:28.819Z,4.40
2022-12-07T06:13:55.652Z,4.40
2022-12-07T06:16:22.524Z,4.40
2022-12-07T06:18:49.416Z,4.40
2022-12-07T06:21:16.200Z,4.40
2022-12-07T06:23:42.962Z,4.30
2022-12-07T06:26:09.761Z,4.30
2022-12-07T06:28:36.548Z,4.40
2022-12-07T06:31:04.244Z,4.40
2022-12-07T06:33:32.435Z,4.40
2022-12-07T06:35:59.219Z,4.30
2022-12-07T06:38:26.106Z,4.40
2022-12-07T06:40:52.901Z,4.30
2022-12-07T06:43:19.716Z,4.40
2022-12-07T06:45:46.672Z,4.40
2022-12-07T06:48:13.603Z,4.30
2022-12-07T06:50:40.559Z,4.40
2022-12-07T06:53:07.311Z,4.30
2022-12-07T06:55:34.105Z,4.30
2022-12-07T06:58:02.552Z,4.30
2022-12-07T07:00:29.910Z,4.30
2022-12-07T07:02:56.765Z,4.30
2022-12-07T07:05:23.699Z,4.30
2022-12-07T07:08:21.005Z,4.30
2022-12-07T07:10:38.473Z,4.20
2022-12-07T07:13:05.768Z,4.20
2022-12-07T07:15:33.655Z,4.20
2022-12-07T07:18:07.430Z,4.10
2022-12-07T07:20:34.761Z,4.10
2022-12-07T07:23:01.765Z,4.10
2022-12-07T07:25:28.614Z,4.10
2022-12-07T07:27:55.774Z,4.10
2022-12-07T07:30:22.664Z,4.10
2022-12-07T07:32:49.618Z,4.10
2022-12-07T07:35:16.608Z,4.20
2022-12-07T07:37:43.436Z,4.10
2022-12-07T07:40:10.918Z,4.10
2022-12-07T07:42:37.659Z,4.10
2022-12-07T07:45:05.493Z,4.10
2022-12-07T07:47:32.555Z,4.10
2022-12-07T07:49:59.435Z,4.10
2022-12-07T07:52:26.430Z,4.10
2022-12-07T07:54:53.199Z,4.00
2022-12-07T07:57:19.925Z,4.00
2022-12-07T07:59:46.724Z,3.90
2022-12-07T08:02:16.257Z,3.90
2022-12-07T08:04:43.238Z,3.90
2022-12-07T08:07:10.512Z,3.90
2022-12-07T08:09:37.300Z,4.00
2022-12-07T08:12:04.806Z,4.00
2022-12-07T08:14:32.136Z,4.00
2022-12-07T08:16:58.957Z,4.10
2022-12-07T08:19:25.792Z,4.10
2022-12-07T08:21:52.937Z,4.10
2022-12-07T08:24:19.702Z,4.10
2022-12-07T08:26:46.451Z,4.10
2022-12-07T08:29:13.166Z,4.10
2022-12-07T08:31:40.738Z,4.10
2022-12-07T08:34:07.706Z,4.20
2022-12-07T08:36:34.524Z,4.20
2022-12-07T08:39:30.527Z,4.20
2022-12-07T08:41:48.784Z,4.20
2022-12-07T08:44:15.559Z,4.30
2022-12-07T08:46:59.162Z,4.20
2022-12-07T08:49:32.672Z,4.30
2022-12-07T08:51:59.524Z,4.40
2022-12-07T08:54:26.843Z,4.40
2022-12-07T08:56:59.514Z,4.50
2022-12-07T08:59:28.634Z,4.50
2022-12-07T09:01:55.675Z,4.50
2022-12-07T09:04:22.526Z,4.60
2022-12-07T09:06:49.695Z,4.60
2022-12-07T09:09:16.700Z,4.60
2022-12-07T09:11:43.611Z,4.70
2022-12-07T09:14:10.424Z,4.80
2022-12-07T09:16:37.283Z,4.80
2022-12-07T09:19:04.096Z,4.80
2022-12-07T09:21:31.034Z,4.80
2022-12-07T09:23:57.773Z,4.80
2022-12-07T09:26:24.604Z,4.80
2022-12-07T09:28:51.366Z,4.80
2022-12-07T09:31:26.395Z,4.80
2022-12-07T09:34:01.461Z,4.80
2022-12-07T09:36:29.624Z,4.80
2022-12-07T09:38:56.807Z,4.80
2022-12-07T09:41:25.352Z,4.90
2022-12-07T09:44:05.971Z,4.90
2022-12-07T09:46:40.026Z,4.90
2022-12-07T09:49:18.851Z,5.00
2022-12-07T09:51:46.238Z,5.10
2022-12-07T09:54:15.618Z,5.10
2022-12-07T09:56:43.586Z,5.10
2022-12-07T09:59:17.750Z,5.10
2022-12-07T10:01:45.297Z,5.10
2022-12-07T10:04:17.644Z,5.10
2022-12-07T10:06:44.607Z,5.10
2022-12-07T10:09:18.812Z,5.10
2022-12-07T10:12:10.240Z,5.10
2022-12-07T10:17:41.558Z,5.00
2022-12-07T10:20:17.413Z,5.10
2022-12-07T10:23:06.652Z,5.10
2022-12-07T10:25:35.777Z,5.20
2022-12-07T10:28:08.736Z,5.20
2022-12-07T10:31:04.301Z,5.20
2022-12-07T10:33:50.922Z,5.20
2022-12-07T10:36:22.614Z,5.20
2022-12-07T10:38:59.258Z,5.30
2022-12-07T10:41:26.119Z,5.30
2022-12-07T10:43:55.735Z,5.40
2022-12-07T10:46:44.722Z,5.50
2022-12-07T10:49:52.907Z,5.60
2022-12-07T10:52:41.608Z,5.50
2022-12-07T10:55:11.410Z,5.60
2022-12-07T10:57:51.040Z,5.70
2022-12-07T11:00:26.067Z,5.70
2022-12-07T11:03:20.302Z,5.70
2022-12-07T11:06:05.966Z,5.70
2022-12-07T11:08:56.754Z,5.70
2022-12-07T11:11:34.651Z,5.70
2022-12-07T11:14:10.243Z,5.80
2022-12-07T11:16:56.120Z,5.80
2022-12-07T11:19:52.039Z,5.80
2022-12-07T11:22:42.178Z,5.80
2022-12-07T11:25:27.256Z,5.80
2022-12-07T11:28:08.007Z,5.80
2022-12-07T11:30:48.458Z,5.80
2022-12-07T11:33:38.464Z,5.80
2022-12-07T11:36:44.437Z,5.90
2022-12-07T11:39:37.351Z,6.00
2022-12-07T11:42:13.522Z,6.10
2022-12-07T11:44:54.363Z,6.10
2022-12-07T11:47:41.984Z,6.10
2022-12-07T11:50:27.499Z,6.10
2022-12-07T11:53:06.489Z,6.20
2022-12-07T11:55:39.231Z,6.20
2022-12-07T11:58:22.405Z,6.20
2022-12-07T12:00:52.718Z,6.20
2022-12-07T12:03:45.830Z,6.20
2022-12-07T12:06:15.808Z,6.20
2022-12-07T12:15:41.347Z,6.10
2022-12-07T12:18:23.650Z,6.10
2022-12-07T12:20:57.244Z,6.10
2022-12-07T12:23:45.461Z,6.10
2022-12-07T12:26:22.226Z,6.20
2022-12-07T12:28:55.709Z,6.20
2022-12-07T12:31:22.705Z,6.30
2022-12-07T12:34:01.588Z,6.30
2022-12-07T12:36:46.347Z,6.30
2022-12-07T12:39:19.622Z,6.30
2022-12-07T12:41:49.094Z,6.30
2022-12-07T12:44:15.833Z,6.30
2022-12-07T12:47:01.436Z,6.40
2022-12-07T12:49:35.972Z,6.40
2022-12-07T12:52:14.975Z,6.40
2022-12-07T12:55:13.025Z,6.40
2022-12-07T12:57:39.931Z,6.40
2022-12-07T13:00:20.824Z,6.40
2022-12-07T13:02:57.020Z,6.40
2022-12-07T13:05:28.477Z,6.40
2022-12-07T13:07:58.784Z,6.40
2022-12-07T13:10:31.314Z,6.40
2022-12-07T13:13:16.267Z,6.40
2022-12-07T13:15:45.717Z,6.40
2022-12-07T13:18:33.270Z,6.40
2022-12-07T13:21:00.141Z,6.30
2022-12-07T13:23:33.036Z,6.30
2022-12-07T13:26:15.545Z,6.30
2022-12-07T13:28:50.024Z,6.30
2022-12-07T13:31:45.903Z,6.30
2022-12-07T13:34:31.477Z,6.30
2022-12-07T13:37:00.585Z,6.20
2022-12-07T13:39:28.030Z,6.20
2022-12-07T13:41:56.238Z,6.20
2022-12-07T13:44:24.214Z,6.20
2022-12-07T13:47:09.739Z,6.20
2022-12-07T13:49:57.111Z,6.20
2022-12-07T13:52:31.846Z,6.20
2022-12-07T13:55:07.592Z,6.10
2022-12-07T13:57:36.577Z,6.10
2022-12-07T14:00:15.925Z,6.10
2022-12-07T14:03:02.792Z,6.10
2022-12-07T14:05:36.205Z,6.10
2022-12-07T14:08:06.444Z,6.10
2022-12-07T14:10:41.390Z,6.10
2022-12-07T14:13:35.027Z,6.00
2022-12-07T14:16:04.086Z,6.00
2022-12-07T14:18:38.815Z,6.00
2022-12-07T14:21:11.702Z,6.00
2022-12-07T14:23:40.266Z,5.90
2022-12-07T14:26:19.992Z,5.90
2022-12-07T14:28:48.326Z,5.90
2022-12-07T14:31:23.780Z,5.90
2022-12-07T14:33:53.093Z,5.90
2022-12-07T14:36:19.969Z,5.80
2022-12-07T14:38:47.128Z,5.70
2022-12-07T14:41:36.847Z,5.60
2022-12-07T14:44:23.213Z,5.50
2022-12-07T14:49:39.034Z,5.20
2022-12-07T14:54:59.001Z,5.00
2022-12-07T14:57:25.743Z,4.90
2022-12-07T14:59:52.449Z,4.90
2022-12-07T15:02:19.216Z,4.80
2022-12-07T15:04:46.050Z,4.80
2022-12-07T15:07:21.773Z,4.70
2022-12-07T15:09:49.536Z,4.70
2022-12-07T15:12:16.471Z,4.60
2022-12-07T15:14:43.253Z,4.50
2022-12-07T15:17:22.026Z,4.50
2022-12-07T15:19:52.977Z,4.40
2022-12-07T15:22:19.791Z,4.40
2022-12-07T15:24:46.573Z,4.30
2022-12-07T15:27:13.325Z,4.30
2022-12-07T15:29:40.128Z,4.20
2022-12-07T15:32:06.925Z,4.20
2022-12-07T15:34:39.855Z,4.10
2022-12-07T15:37:08.525Z,4.10
2022-12-07T15:39:37.080Z,4.10
2022-12-07T15:42:04.128Z,4.10
2022-12-07T15:44:49.727Z,4.00
2022-12-07T15:47:16.766Z,4.00
2022-12-07T15:49:43.903Z,4.00
2022-12-07T15:52:10.774Z,3.90
2022-12-07T15:54:37.727Z,3.80
2022-12-07T15:57:04.494Z,3.90
2022-12-07T15:59:31.286Z,3.90
2022-12-07T16:01:58.592Z,3.90
2022-12-07T16:04:26.053Z,3.90
2022-12-07T16:06:53.330Z,3.90
2022-12-07T16:09:20.104Z,3.90
2022-12-07T16:11:47.046Z,3.90
2022-12-07T16:14:14.171Z,3.90
2022-12-07T16:16:41.385Z,3.90
2022-12-07T16:19:09.224Z,4.00
2022-12-07T16:21:36.549Z,4.00
2022-12-07T16:24:03.794Z,4.00
2022-12-07T16:26:30.528Z,4.10
2022-12-07T16:28:57.523Z,4.00
2022-12-07T16:31:26.651Z,4.10
2022-12-07T16:33:59.111Z,4.10
2022-12-07T16:37:01.895Z,4.10
2022-12-07T16:39:15.249Z,4.10
2022-12-07T16:41:42.225Z,4.10
2022-12-07T16:44:11.587Z,4.10
2022-12-07T16:46:38.352Z,4.10
2022-12-07T16:49:05.758Z,4.10
2022-12-07T16:51:32.827Z,4.10
2022-12-07T16:53:59.678Z,4.10
2022-12-07T16:56:27.567Z,4.10
2022-12-07T16:58:54.429Z,4.20
2022-12-07T17:01:23.559Z,4.20
2022-12-07T17:03:50.843Z,4.20
2022-12-07T17:06:20.172Z,4.20
2022-12-07T17:08:49.844Z,4.30
2022-12-07T17:11:28.746Z,4.30
2022-12-07T17:14:13.915Z,4.20
2022-12-07T17:16:40.884Z,4.30
2022-12-07T17:19:09.536Z,4.30
2022-12-07T17:21:37.064Z,4.30
2022-12-07T17:24:05.345Z,4.40
2022-12-07T17:26:35.723Z,4.40
2022-12-07T17:29:04.758Z,4.40
2022-12-07T17:31:33.138Z,4.40
2022-12-07T17:34:00.252Z,4.40
2022-12-07T17:36:29.412Z,4.40
2022-12-07T17:38:57.357Z,4.40
2022-12-07T17:41:45.869Z,4.50
2022-12-07T17:44:17.988Z,4.50
2022-12-07T17:46:46.323Z,4.50
2022-12-07T17:49:13.185Z,4.50
2022-12-07T17:51:59.026Z,4.50
2022-12-07T17:54:25.926Z,4.40
2022-12-07T17:56:52.707Z,4.40
2022-12-07T17:59:19.485Z,4.50
2022-12-07T18:01:46.374Z,4.50
2022-12-07T18:04:13.439Z,4.50
2022-12-07T18:06:40.546Z,4.50
2022-12-07T18:09:08.231Z,4.50
2022-12-07T18:11:35.910Z,4.50
2022-12-07T18:14:03.763Z,4.50
2022-12-07T18:16:32.895Z,4.50
2022-12-07T18:19:04.760Z,4.50
2022-12-07T18:21:32.663Z,4.50
2022-12-07T18:24:02.293Z,4.60
2022-12-07T18:26:31.395Z,4.50
2022-12-07T18:29:01.562Z,4.50
2022-12-07T18:31:29.392Z,4.40
2022-12-07T18:33:56.868Z,4.30
2022-12-07T18:36:24.167Z,4.20
2022-12-07T18:38:51.720Z,4.20
2022-12-07T18:41:18.807Z,4.10
2022-12-07T18:43:45.945Z,4.10
2022-12-07T18:46:15.015Z,4.10
2022-12-07T18:48:42.096Z,4.00
2022-12-07T18:51:10.927Z,4.00
2022-12-07T18:53:37.786Z,4.00
2022-12-07T18:56:14.526Z,4.10
2022-12-07T18:59:00.592Z,4.00
2022-12-07T19:01:27.613Z,4.00
2022-12-07T19:03:54.464Z,4.00
2022-12-07T19:06:21.214Z,4.00
2022-12-07T19:08:48.144Z,4.00
2022-12-07T19:11:38.170Z,4.00
2022-12-07T19:14:04.962Z,4.00
2022-12-07T19:16:32.290Z,4.00
2022-12-07T19:18:59.118Z,4.00
2022-12-07T19:21:25.940Z,4.10
2022-12-07T19:23:52.846Z,4.10
2022-12-07T19:26:19.735Z,4.10
2022-12-07T19:28:46.502Z,4.10
2022-12-07T19:31:13.541Z,4.10
2022-12-07T19:33:40.634Z,4.10
2022-12-07T19:36:07.799Z,4.10
2022-12-07T19:38:35.001Z,4.10
2022-12-07T19:41:06.588Z,4.10
2022-12-07T19:43:34.641Z,4.10
2022-12-07T19:46:06.028Z,4.10
2022-12-07T19:48:33.178Z,4.10
2022-12-07T19:51:05.369Z,4.10
2022-12-07T19:53:33.091Z,4.20
2022-12-07T19:55:59.972Z,4.20
2022-12-07T19:58:26.997Z,4.20
2022-12-07T20:00:53.773Z,4.20
2022-12-07T20:03:20.768Z,4.20
2022-12-07T20:05:47.732Z,4.20
2022-12-07T20:08:14.702Z,4.20
2022-12-07T20:10:41.679Z,4.20
2022-12-07T20:13:27.697Z,4.20
2022-12-07T20:16:11.351Z,4.20
2022-12-07T20:18:42.300Z,4.20
2022-12-07T20:21:09.434Z,4.20
2022-12-07T20:23:36.209Z,4.20
2022-12-07T20:26:05.336Z,4.20
2022-12-07T20:28:32.862Z,4.20
2022-12-07T20:30:59.708Z,4.20
2022-12-07T20:33:27.320Z,4.20
2022-12-07T20:35:58.383Z,4.20
2022-12-07T20:38:26.081Z,4.20
2022-12-07T20:40:52.854Z,4.20
2022-12-07T20:43:19.614Z,4.20
2022-12-07T20:45:47.944Z,4.10
2022-12-07T20:48:15.181Z,4.20
2022-12-07T20:50:42.671Z,4.20
2022-12-07T20:53:09.723Z,4.20
2022-12-07T20:55:36.559Z,4.20
2022-12-07T20:58:03.517Z,4.20
2022-12-07T21:00:30.305Z,4.20
2022-12-07T21:02:57.338Z,4.20
2022-12-07T21:05:25.125Z,4.20
2022-12-07T21:07:52.091Z,4.20
2022-12-07T21:10:18.956Z,4.20
2022-12-07T21:12:45.747Z,4.20
2022-12-07T21:15:12.540Z,4.30
2022-12-07T21:17:39.327Z,4.20
2022-12-07T21:20:08.327Z,4.30
2022-12-07T21:22:35.064Z,4.30
2022-12-07T21:25:02.139Z,4.30
2022-12-07T21:27:29.502Z,4.30
2022-12-07T21:29:56.271Z,4.30
2022-12-07T21:32:23.069Z,4.20
2022-12-07T21:34:49.907Z,4.20
2022-12-07T21:37:16.927Z,4.20
2022-12-07T21:39:43.646Z,4.20
2022-12-07T21:42:10.388Z,4.20
2022-12-07T21:44:37.379Z,4.30
2022-12-07T21:47:04.483Z,4.20
2022-12-07T21:49:31.381Z,4.20
2022-12-07T21:51:58.106Z,4.20
2022-12-07T21:54:26.192Z,4.20
2022-12-07T21:56:53.396Z,4.20
2022-12-07T21:59:22.867Z,4.20
2022-12-07T22:01:50.745Z,4.30
2022-12-07T22:04:23.040Z,4.30
2022-12-07T22:06:50.523Z,4.30
2022-12-07T22:09:18.723Z,4.30
2022-12-07T22:11:46.090Z,4.20
2022-12-07T22:14:31.398Z,4.20
2022-12-07T22:16:58.549Z,4.20
2022-12-07T22:19:26.241Z,4.20
2022-12-07T22:21:53.133Z,4.20
2022-12-07T22:24:19.887Z,4.20
2022-12-07T22:26:46.944Z,4.20
2022-12-07T22:29:13.772Z,4.10
2022-12-07T22:31:41.099Z,4.20
2022-12-07T22:34:13.992Z,4.20
2022-12-07T22:36:40.741Z,4.10
2022-12-07T22:39:08.547Z,4.10
2022-12-07T22:41:35.309Z,4.10
2022-12-07T22:44:02.183Z,4.10
2022-12-07T22:46:29.121Z,4.10
2022-12-07T22:48:55.962Z,4.10
2022-12-07T22:51:27.383Z,4.10
2022-12-07T22:53:55.106Z,4.10
2022-12-07T22:56:22.734Z,4.10
2022-12-07T22:58:49.768Z,4.10
2022-12-07T23:01:18.426Z,4.10
2022-12-07T23:03:45.880Z,4.10
2022-12-07T23:06:14.567Z,4.10
2022-12-07T23:08:41.651Z,4.10
2022-12-07T23:11:10.399Z,4.10
2022-12-07T23:13:37.964Z,4.10
2022-12-07T23:16:11.895Z,4.10
2022-12-07T23:18:40.626Z,4.10
2022-12-07T23:21:08.337Z,4.10
2022-12-07T23:23:35.340Z,4.00
2022-12-07T23:26:08.550Z,4.10
2022-12-07T23:28:36.644Z,4.00
2022-12-07T23:31:14.971Z,4.10
2022-12-07T23:33:42.586Z,4.10
2022-12-07T23:36:12.089Z,4.00
2022-12-07T23:38:40.225Z,4.00
2022-12-07T23:41:12.740Z,4.00
2022-12-07T23:43:40.704Z,4.00
2022-12-07T23:46:12.785Z,4.00
2022-12-07T23:48:39.918Z,4.00
2022-12-07T23:51:08.380Z,4.00
2022-12-07T23:53:39.860Z,4.00
2022-12-07T23:56:10.680Z,4.00
2022-12-07T23:58:37.500Z,4.00
